Time;durP1;ratioP1;P1;durP2;ratioP2;P2;SDS_P1;SDS_P2;PMS_P1;PMS_P2;Temp;Humidity;BMP_temperature;BMP_pressure;BME280_temperature;BME280_humidity;BME280_pressure;Samples;Min_cycle;Max_cycle;Signal;HPM_P1;HPM_P2
2024/01/25 00:01:02;;;;;;;24.43;6.03;;;;;;;;;;5053392;28;20236;-83
2024/01/25 00:03:40;;;;;;;17.70;4.67;;;;;;;;;;5053662;28;20203;-83
2024/01/25 00:06:07;;;;;;;13.23;3.93;;;;;;;;;;5052306;28;20219;-82
2024/01/25 00:08:35;;;;;;;25.57;5.23;;;;;;;;;;5053415;28;20231;-83
2024/01/25 00:11:02;;;;;;;14.13;4.40;;;;;;;;;;5053394;28;20196;-83
2024/01/25 00:13:30;;;;;;;13.57;3.57;;;;;;;;;;5053126;28;20188;-82
2024/01/25 00:15:57;;;;;;;11.83;3.70;;;;;;;;;;5052487;28;20606;-82
2024/01/25 00:18:24;;;;;;;17.60;4.67;;;;;;;;;;5052193;28;20221;-82
2024/01/25 00:20:52;;;;;;;12.27;4.00;;;;;;;;;;5053976;28;20208;-82
2024/01/25 00:23:19;;;;;;;13.13;3.67;;;;;;;;;;5053640;28;20544;-82
2024/01/25 00:25:46;;;;;;;13.10;3.57;;;;;;;;;;5053385;28;20200;-81
2024/01/25 00:28:13;;;;;;;13.60;5.00;;;;;;;;;;5053316;28;20232;-82
2024/01/25 00:30:40;;;;;;;21.03;4.20;;;;;;;;;;5053500;28;20266;-82
2024/01/25 00:33:07;;;;;;;16.50;3.53;;;;;;;;;;5053511;28;20196;-82
2024/01/25 00:35:35;;;;;;;9.53;3.00;;;;;;;;;;5052348;28;20235;-81
2024/01/25 00:38:03;;;;;;;10.77;3.13;;;;;;;;;;5053991;28;20191;-81
2024/01/25 00:40:30;;;;;;;14.70;3.70;;;;;;;;;;5053742;28;20195;-82
2024/01/25 00:42:57;;;;;;;16.83;4.87;;;;;;;;;;5053728;28;20645;-85
2024/01/25 00:45:24;;;;;;;14.87;4.20;;;;;;;;;;5053228;28;20287;-83
2024/01/25 00:47:52;;;;;;;17.90;3.60;;;;;;;;;;5053198;28;20281;-83
2024/01/25 00:50:20;;;;;;;7.10;2.70;;;;;;;;;;5053179;28;20223;-82
2024/01/25 00:52:49;;;;;;;25.60;6.87;;;;;;;;;;5053883;28;20200;-83
2024/01/25 00:55:16;;;;;;;21.17;4.43;;;;;;;;;;5053572;28;20196;-85
2024/01/25 00:57:44;;;;;;;8.87;2.40;;;;;;;;;;5052998;28;20203;-82
2024/01/25 01:00:12;;;;;;;11.10;2.30;;;;;;;;;;5053267;28;20228;-85
2024/01/25 01:02:43;;;;;;;14.83;2.83;;;;;;;;;;5053267;28;20196;-85
2024/01/25 01:05:11;;;;;;;5.93;2.00;;;;;;;;;;5055682;28;20180;-85
2024/01/25 01:07:40;;;;;;;6.27;2.00;;;;;;;;;;5057215;28;20235;-86
2024/01/25 01:10:08;;;;;;;12.80;2.93;;;;;;;;;;5056867;28;20200;-82
2024/01/25 01:12:36;;;;;;;10.27;3.07;;;;;;;;;;5056850;28;20196;-82
2024/01/25 01:15:04;;;;;;;11.67;3.77;;;;;;;;;;5056031;28;20192;-82
2024/01/25 01:17:32;;;;;;;14.70;3.70;;;;;;;;;;5056764;28;20195;-82
2024/01/25 01:19:59;;;;;;;11.27;2.53;;;;;;;;;;5056426;28;20200;-82
2024/01/25 01:22:27;;;;;;;12.77;2.77;;;;;;;;;;5055491;28;20215;-83
2024/01/25 01:24:54;;;;;;;10.70;2.37;;;;;;;;;;5056443;28;20188;-82
2024/01/25 01:27:21;;;;;;;14.47;3.30;;;;;;;;;;5055215;28;20228;-82
2024/01/25 01:29:48;;;;;;;15.20;3.63;;;;;;;;;;5055590;28;20203;-82
2024/01/25 01:32:17;;;;;;;14.17;3.90;;;;;;;;;;5056277;28;20611;-82
2024/01/25 01:34:44;;;;;;;15.40;2.93;;;;;;;;;;5055089;28;20234;-82
2024/01/25 01:37:11;;;;;;;16.17;3.10;;;;;;;;;;5056364;28;20641;-82
2024/01/25 01:39:39;;;;;;;23.90;4.23;;;;;;;;;;5056200;28;20212;-82
2024/01/25 01:42:06;;;;;;;10.80;3.00;;;;;;;;;;5056407;28;20629;-82
2024/01/25 01:44:33;;;;;;;12.70;2.57;;;;;;;;;;5054844;28;20220;-82
2024/01/25 01:47:01;;;;;;;9.27;3.30;;;;;;;;;;5056069;28;20239;-82
2024/01/25 01:49:27;;;;;;;12.77;3.23;;;;;;;;;;5055951;28;20287;-82
2024/01/25 01:51:55;;;;;;;9.80;2.13;;;;;;;;;;5055238;28;20208;-82
2024/01/25 01:54:22;;;;;;;9.07;2.17;;;;;;;;;;5055715;28;20200;-82
2024/01/25 01:56:50;;;;;;;15.73;3.50;;;;;;;;;;5056192;28;20204;-83
2024/01/25 01:59:17;;;;;;;10.23;2.90;;;;;;;;;;5054493;28;20200;-82
2024/01/25 02:01:44;;;;;;;16.10;2.67;;;;;;;;;;5056222;28;20183;-82
2024/01/25 02:04:11;;;;;;;10.77;2.43;;;;;;;;;;5055504;28;20196;-82
2024/01/25 02:06:39;;;;;;;7.13;2.10;;;;;;;;;;5055806;28;20257;-82
2024/01/25 02:09:06;;;;;;;8.43;2.00;;;;;;;;;;5055355;28;20220;-82
2024/01/25 02:11:34;;;;;;;7.17;1.90;;;;;;;;;;5055592;28;20657;-81
2024/01/25 02:14:01;;;;;;;7.60;2.03;;;;;;;;;;5055205;28;20672;-82
2024/01/25 02:16:28;;;;;;;4.77;1.73;;;;;;;;;;5054573;28;20653;-82
2024/01/25 02:18:57;;;;;;;7.83;1.87;;;;;;;;;;5055257;28;20231;-82
2024/01/25 02:21:25;;;;;;;5.90;1.80;;;;;;;;;;5055172;28;20212;-85
2024/01/25 02:23:52;;;;;;;8.00;1.97;;;;;;;;;;5055805;28;20196;-82
2024/01/25 02:26:19;;;;;;;8.53;2.53;;;;;;;;;;5054993;28;20196;-81
2024/01/25 02:28:46;;;;;;;6.80;2.03;;;;;;;;;;5055129;28;20224;-82
2024/01/25 02:31:14;;;;;;;6.73;2.10;;;;;;;;;;5054797;28;20234;-81
2024/01/25 02:33:41;;;;;;;6.10;1.53;;;;;;;;;;5055064;28;20287;-85
2024/01/25 02:36:08;;;;;;;6.80;1.77;;;;;;;;;;5055149;28;20211;-80
2024/01/25 02:38:35;;;;;;;5.17;1.73;;;;;;;;;;5054931;28;20250;-79
2024/01/25 02:41:05;;;;;;;4.17;1.70;;;;;;;;;;5055793;28;20215;-79
2024/01/25 02:43:32;;;;;;;5.90;1.50;;;;;;;;;;5054775;28;20299;-79
2024/01/25 02:45:59;;;;;;;7.23;1.47;;;;;;;;;;5055100;28;20211;-79
2024/01/25 02:48:27;;;;;;;10.07;2.50;;;;;;;;;;5054466;28;20232;-79
2024/01/25 02:50:54;;;;;;;6.83;2.00;;;;;;;;;;5054412;28;20688;-80
2024/01/25 02:53:21;;;;;;;6.27;2.03;;;;;;;;;;5054361;28;20208;-79
2024/01/25 02:55:48;;;;;;;4.43;1.50;;;;;;;;;;5054712;28;20211;-79
2024/01/25 02:58:17;;;;;;;4.53;1.33;;;;;;;;;;5054328;28;20227;-80
2024/01/25 03:00:45;;;;;;;8.73;2.77;;;;;;;;;;5055574;28;20232;-80
2024/01/25 03:03:12;;;;;;;5.90;2.20;;;;;;;;;;5054470;28;20298;-81
2024/01/25 03:05:39;;;;;;;9.00;2.80;;;;;;;;;;5054803;28;20257;-81
2024/01/25 03:08:06;;;;;;;7.33;1.80;;;;;;;;;;5054578;28;20251;-81
2024/01/25 03:10:34;;;;;;;7.57;2.27;;;;;;;;;;5054826;28;20208;-81
2024/01/25 03:13:01;;;;;;;7.47;2.30;;;;;;;;;;5054479;28;20211;-81
2024/01/25 03:15:28;;;;;;;6.20;1.80;;;;;;;;;;5054349;28;20676;-81
2024/01/25 03:17:55;;;;;;;9.37;1.73;;;;;;;;;;5054517;28;20203;-81
2024/01/25 03:20:22;;;;;;;3.97;1.70;;;;;;;;;;5054346;28;20192;-83
2024/01/25 03:22:49;;;;;;;4.70;1.60;;;;;;;;;;5054556;28;20258;-81
2024/01/25 03:25:17;;;;;;;12.67;2.90;;;;;;;;;;5054253;28;20208;-81
2024/01/25 03:27:44;;;;;;;7.83;2.30;;;;;;;;;;5052887;28;20577;-80
2024/01/25 03:30:12;;;;;;;6.33;2.13;;;;;;;;;;5053008;28;20196;-81
2024/01/25 03:32:39;;;;;;;10.63;2.60;;;;;;;;;;5054463;28;20200;-81
2024/01/25 03:35:06;;;;;;;11.17;2.70;;;;;;;;;;5053790;28;20226;-85
2024/01/25 03:37:33;;;;;;;12.00;3.20;;;;;;;;;;5054486;28;20633;-81
2024/01/25 03:40:01;;;;;;;8.70;2.10;;;;;;;;;;5054063;28;20218;-81
2024/01/25 03:42:28;;;;;;;5.20;2.20;;;;;;;;;;5053913;28;20203;-81
2024/01/25 03:44:55;;;;;;;6.13;2.50;;;;;;;;;;5053844;28;20202;-82
2024/01/25 03:47:22;;;;;;;14.50;2.10;;;;;;;;;;5053993;28;20211;-82
2024/01/25 03:49:49;;;;;;;11.00;1.93;;;;;;;;;;5053977;28;20204;-82
2024/01/25 03:52:16;;;;;;;13.83;2.03;;;;;;;;;;5053817;28;20232;-82
2024/01/25 03:54:44;;;;;;;6.03;1.73;;;;;;;;;;5054094;28;20195;-83
2024/01/25 03:57:11;;;;;;;10.67;3.13;;;;;;;;;;5053982;28;20680;-82
2024/01/25 03:59:38;;;;;;;9.77;2.20;;;;;;;;;;5053480;28;20236;-82
2024/01/25 04:02:05;;;;;;;10.20;2.33;;;;;;;;;;5053890;28;20200;-82
2024/01/25 04:04:33;;;;;;;10.13;1.83;;;;;;;;;;5053662;28;20192;-82
2024/01/25 04:07:00;;;;;;;11.73;2.10;;;;;;;;;;5053863;28;20196;-82
2024/01/25 04:09:27;;;;;;;16.13;2.97;;;;;;;;;;5053852;28;20231;-82
2024/01/25 04:11:55;;;;;;;14.53;2.90;;;;;;;;;;5053667;28;20590;-81
2024/01/25 04:14:23;;;;;;;15.53;3.33;;;;;;;;;;5053974;28;20215;-82
2024/01/25 04:16:50;;;;;;;14.27;3.43;;;;;;;;;;5054155;28;20273;-81
2024/01/25 04:19:18;;;;;;;7.43;2.37;;;;;;;;;;5053489;28;20199;-84
2024/01/25 04:21:45;;;;;;;20.57;4.40;;;;;;;;;;5053398;28;20295;-81
2024/01/25 04:24:12;;;;;;;16.97;3.83;;;;;;;;;;5052987;28;20581;-84
2024/01/25 04:26:39;;;;;;;6.13;1.80;;;;;;;;;;5053831;28;20199;-83
2024/01/25 04:29:06;;;;;;;10.97;2.00;;;;;;;;;;5053465;28;20669;-83
2024/01/25 04:31:33;;;;;;;9.13;2.63;;;;;;;;;;5051298;28;20240;-83
2024/01/25 04:34:01;;;;;;;8.43;2.13;;;;;;;;;;5048870;28;20200;-83
2024/01/25 04:36:28;;;;;;;9.30;2.13;;;;;;;;;;5044187;28;20208;-83
2024/01/25 04:38:55;;;;;;;8.67;2.23;;;;;;;;;;5048671;28;20204;-83
2024/01/25 04:41:22;;;;;;;15.27;2.37;;;;;;;;;;5048996;28;20204;-83
2024/01/25 04:43:50;;;;;;;8.40;2.20;;;;;;;;;;5051021;28;20215;-84
2024/01/25 04:46:17;;;;;;;19.00;2.47;;;;;;;;;;5053190;28;20209;-84
2024/01/25 04:48:45;;;;;;;9.70;2.30;;;;;;;;;;5048929;28;20271;-82
2024/01/25 04:51:20;;;;;;;8.93;1.97;;;;;;;;;;5053210;28;20669;-83
2024/01/25 04:53:47;;;;;;;10.07;2.23;;;;;;;;;;5049603;28;20199;-84
2024/01/25 04:56:14;;;;;;;6.83;1.90;;;;;;;;;;5050665;28;20220;-84
2024/01/25 04:58:41;;;;;;;15.00;3.17;;;;;;;;;;5046523;28;20619;-84
2024/01/25 05:01:08;;;;;;;11.13;3.07;;;;;;;;;;5041290;28;20245;-84
2024/01/25 05:03:35;;;;;;;12.77;2.73;;;;;;;;;;5032488;28;20208;-84
2024/01/25 05:06:03;;;;;;;11.50;2.83;;;;;;;;;;5053440;28;20196;-84
2024/01/25 05:08:30;;;;;;;17.67;3.43;;;;;;;;;;5039023;28;20235;-83
2024/01/25 05:10:57;;;;;;;14.30;3.77;;;;;;;;;;5038162;28;20598;-83
2024/01/25 05:13:25;;;;;;;7.57;2.00;;;;;;;;;;5038039;28;20247;-83
2024/01/25 05:15:52;;;;;;;10.77;2.20;;;;;;;;;;5055772;28;20228;-84
2024/01/25 05:18:19;;;;;;;10.23;2.63;;;;;;;;;;5055530;28;20235;-83
2024/01/25 05:20:46;;;;;;;9.70;1.80;;;;;;;;;;5053981;28;20227;-83
2024/01/25 05:23:13;;;;;;;16.07;2.30;;;;;;;;;;5044257;28;20712;-83
2024/01/25 05:25:40;;;;;;;13.03;2.80;;;;;;;;;;5049614;28;20216;-84
2024/01/25 05:28:08;;;;;;;14.33;3.00;;;;;;;;;;5050190;28;20248;-84
2024/01/25 05:30:35;;;;;;;7.60;2.37;;;;;;;;;;5058927;28;20224;-84
2024/01/25 05:33:02;;;;;;;5.70;1.87;;;;;;;;;;5055594;28;20228;-83
2024/01/25 05:35:29;;;;;;;11.10;1.93;;;;;;;;;;5054851;28;20228;-81
2024/01/25 05:37:57;;;;;;;13.07;2.20;;;;;;;;;;5048869;28;20224;-83
2024/01/25 05:40:24;;;;;;;7.30;1.83;;;;;;;;;;5035425;28;20225;-82
2024/01/25 05:42:51;;;;;;;7.83;1.83;;;;;;;;;;5046405;28;20601;-82
2024/01/25 05:45:20;;;;;;;8.53;1.80;;;;;;;;;;5055143;28;20235;-83
2024/01/25 05:47:47;;;;;;;6.17;2.07;;;;;;;;;;5054330;28;20215;-81
2024/01/25 05:50:14;;;;;;;7.27;2.00;;;;;;;;;;5054572;28;20224;-81
2024/01/25 05:52:42;;;;;;;15.47;2.70;;;;;;;;;;5053869;28;20228;-81
2024/01/25 05:55:09;;;;;;;5.57;1.60;;;;;;;;;;5042525;28;20701;-81
2024/01/25 05:57:37;;;;;;;13.93;2.10;;;;;;;;;;5042404;28;20227;-81
2024/01/25 06:00:05;;;;;;;4.97;1.90;;;;;;;;;;5061605;28;20250;-80
2024/01/25 06:02:34;;;;;;;5.83;1.60;;;;;;;;;;5075211;28;20233;-80
2024/01/25 06:05:01;;;;;;;10.47;1.83;;;;;;;;;;5073348;28;20235;-80
2024/01/25 06:07:29;;;;;;;9.07;1.90;;;;;;;;;;5074578;28;20223;-81
2024/01/25 06:09:56;;;;;;;10.30;2.30;;;;;;;;;;5073767;28;20277;-80
2024/01/25 06:12:23;;;;;;;6.73;1.80;;;;;;;;;;5073860;28;20228;-81
2024/01/25 06:14:52;;;;;;;10.10;2.43;;;;;;;;;;5073687;28;20263;-81
2024/01/25 06:17:19;;;;;;;12.03;2.13;;;;;;;;;;5074198;28;20722;-81
2024/01/25 06:19:46;;;;;;;8.57;1.93;;;;;;;;;;5057419;28;20204;-81
2024/01/25 06:22:14;;;;;;;8.23;2.27;;;;;;;;;;5075263;28;20202;-81
2024/01/25 06:24:41;;;;;;;16.10;2.50;;;;;;;;;;5074887;28;20744;-81
2024/01/25 06:27:11;;;;;;;9.73;2.30;;;;;;;;;;5075107;28;20207;-81
2024/01/25 06:29:38;;;;;;;8.17;1.93;;;;;;;;;;5074809;28;20234;-81
2024/01/25 06:32:06;;;;;;;8.03;1.90;;;;;;;;;;5075652;28;20207;-81
2024/01/25 06:34:39;;;;;;;11.97;2.87;;;;;;;;;;5074796;28;20560;-81
2024/01/25 06:37:07;;;;;;;12.77;2.80;;;;;;;;;;5074982;28;20214;-81
2024/01/25 06:39:34;;;;;;;7.93;2.33;;;;;;;;;;5074921;28;20206;-81
2024/01/25 06:42:01;;;;;;;9.83;2.77;;;;;;;;;;5074595;28;20203;-80
2024/01/25 06:44:28;;;;;;;9.43;2.37;;;;;;;;;;5074480;28;20208;-80
2024/01/25 06:46:56;;;;;;;13.10;3.57;;;;;;;;;;5040247;28;20204;-80
2024/01/25 06:49:23;;;;;;;7.83;2.53;;;;;;;;;;5074346;28;20227;-81
2024/01/25 06:51:50;;;;;;;8.13;2.67;;;;;;;;;;5074427;28;20269;-81
2024/01/25 06:54:17;;;;;;;6.37;2.20;;;;;;;;;;5074077;28;20249;-81
2024/01/25 06:56:44;;;;;;;5.73;2.33;;;;;;;;;;5074599;28;20648;-81
2024/01/25 06:59:11;;;;;;;10.97;2.47;;;;;;;;;;5058946;28;20199;-80
2024/01/25 07:01:39;;;;;;;6.57;3.00;;;;;;;;;;5052726;28;20204;-81
2024/01/25 07:04:06;;;;;;;5.97;2.13;;;;;;;;;;5052003;28;20227;-81
2024/01/25 07:06:34;;;;;;;6.17;2.30;;;;;;;;;;5034654;28;20646;-81
2024/01/25 07:09:02;;;;;;;21.57;4.43;;;;;;;;;;5034577;28;20221;-81
2024/01/25 07:11:29;;;;;;;11.33;3.27;;;;;;;;;;5034280;28;20196;-81
2024/01/25 07:13:56;;;;;;;6.53;2.10;;;;;;;;;;5034077;28;20311;-81
2024/01/25 07:16:24;;;;;;;7.47;2.77;;;;;;;;;;5036034;28;20203;-81
2024/01/25 07:18:51;;;;;;;13.07;4.57;;;;;;;;;;5047632;28;20199;-81
2024/01/25 07:21:18;;;;;;;22.20;8.57;;;;;;;;;;5032857;28;20586;-81
2024/01/25 07:23:45;;;;;;;15.43;6.57;;;;;;;;;;5034014;28;20250;-81
2024/01/25 07:26:17;;;;;;;10.17;4.00;;;;;;;;;;5032728;28;20192;-81
2024/01/25 07:28:46;;;;;;;15.43;4.40;;;;;;;;;;5038360;28;20247;-81
2024/01/25 07:31:13;;;;;;;8.07;2.40;;;;;;;;;;5052148;28;20722;-81
2024/01/25 07:33:40;;;;;;;8.47;3.20;;;;;;;;;;5053553;28;20556;-81
2024/01/25 07:36:08;;;;;;;7.50;2.37;;;;;;;;;;5053634;28;20184;-81
2024/01/25 07:38:35;;;;;;;11.57;2.27;;;;;;;;;;5051416;28;20192;-81
2024/01/25 07:41:02;;;;;;;10.97;2.20;;;;;;;;;;5033524;28;20200;-81
2024/01/25 07:43:29;;;;;;;9.63;2.67;;;;;;;;;;5033666;28;20216;-81
2024/01/25 07:45:56;;;;;;;8.43;2.27;;;;;;;;;;5033168;28;20211;-81
2024/01/25 07:48:23;;;;;;;8.53;2.60;;;;;;;;;;5033745;28;20562;-81
2024/01/25 07:50:51;;;;;;;7.73;1.97;;;;;;;;;;5033254;28;20209;-81
2024/01/25 07:53:18;;;;;;;9.77;2.93;;;;;;;;;;5038608;28;20196;-81
2024/01/25 07:55:45;;;;;;;12.10;3.07;;;;;;;;;;5033415;28;20556;-81
2024/01/25 07:58:15;;;;;;;8.53;3.87;;;;;;;;;;5033643;28;20204;-81
2024/01/25 08:00:45;;;;;;;11.00;4.93;;;;;;;;;;5033151;28;20240;-81
2024/01/25 08:03:14;;;;;;;9.43;3.40;;;;;;;;;;5033550;28;20217;-81
2024/01/25 08:05:41;;;;;;;10.67;3.77;;;;;;;;;;5033658;28;20204;-81
2024/01/25 08:08:17;;;;;;;14.87;3.67;;;;;;;;;;5032493;28;20211;-80
2024/01/25 08:10:45;;;;;;;14.07;3.93;;;;;;;;;;5051772;28;20223;-83
2024/01/25 08:13:13;;;;;;;13.83;3.93;;;;;;;;;;5053073;28;20203;-81
2024/01/25 08:15:40;;;;;;;6.93;2.47;;;;;;;;;;5052312;28;20200;-81
2024/01/25 08:18:07;;;;;;;16.53;5.20;;;;;;;;;;5052150;28;20196;-81
2024/01/25 08:20:37;;;;;;;9.33;2.73;;;;;;;;;;5036406;28;20201;-81
2024/01/25 08:23:04;;;;;;;11.23;2.90;;;;;;;;;;5033375;28;20638;-81
2024/01/25 08:25:31;;;;;;;12.10;3.63;;;;;;;;;;5048300;28;20570;-81
2024/01/25 08:27:59;;;;;;;23.70;5.40;;;;;;;;;;5035741;28;20539;-81
2024/01/25 08:30:26;;;;;;;8.33;2.60;;;;;;;;;;5052667;28;20308;-81
2024/01/25 08:32:53;;;;;;;11.30;3.97;;;;;;;;;;5053317;28;20203;-81
2024/01/25 08:35:20;;;;;;;14.47;3.27;;;;;;;;;;5053109;28;20202;-81
2024/01/25 08:37:49;;;;;;;10.27;3.23;;;;;;;;;;5053172;28;20188;-81
2024/01/25 08:40:16;;;;;;;10.73;2.60;;;;;;;;;;5051602;28;20199;-82
2024/01/25 08:42:44;;;;;;;16.00;3.13;;;;;;;;;;5053394;28;20204;-81
2024/01/25 08:45:11;;;;;;;13.57;3.63;;;;;;;;;;5051349;28;20286;-81
2024/01/25 08:47:44;;;;;;;13.13;3.70;;;;;;;;;;5053261;28;20200;-82
2024/01/25 08:50:12;;;;;;;11.57;3.20;;;;;;;;;;5052926;28;20211;-82
2024/01/25 08:52:40;;;;;;;20.23;4.70;;;;;;;;;;5053133;28;20526;-81
2024/01/25 08:55:09;;;;;;;12.00;4.17;;;;;;;;;;5052535;28;20211;-82
2024/01/25 08:57:37;;;;;;;12.83;3.97;;;;;;;;;;5053285;28;20196;-82
2024/01/25 09:00:10;;;;;;;10.80;3.20;;;;;;;;;;5052671;28;20595;-81
2024/01/25 09:02:38;;;;;;;9.93;3.00;;;;;;;;;;5053312;28;20196;-82
2024/01/25 09:05:05;;;;;;;14.27;5.93;;;;;;;;;;5052881;28;20573;-82
2024/01/25 09:07:33;;;;;;;12.90;2.77;;;;;;;;;;5051516;28;20261;-82
2024/01/25 09:10:01;;;;;;;9.87;3.33;;;;;;;;;;5033499;28;20246;-82
2024/01/25 09:12:28;;;;;;;15.93;4.60;;;;;;;;;;5050818;28;20231;-82
2024/01/25 09:14:55;;;;;;;12.10;3.70;;;;;;;;;;5051607;28;20300;-82
2024/01/25 09:17:22;;;;;;;8.80;2.60;;;;;;;;;;5051387;28;20230;-81
2024/01/25 09:19:49;;;;;;;11.87;2.80;;;;;;;;;;5052098;28;20231;-82
2024/01/25 09:22:19;;;;;;;2.93;1.60;;;;;;;;;;5044952;28;20228;-82
2024/01/25 09:24:46;;;;;;;11.07;2.60;;;;;;;;;;5044637;28;20788;-82
2024/01/25 09:27:14;;;;;;;9.13;2.30;;;;;;;;;;5054484;28;20216;-82
2024/01/25 09:29:42;;;;;;;8.13;2.37;;;;;;;;;;5055445;28;20249;-82
2024/01/25 09:32:10;;;;;;;5.63;2.40;;;;;;;;;;5055793;28;20700;-81
2024/01/25 09:34:37;;;;;;;44.53;17.03;;;;;;;;;;5055460;28;20240;-82
2024/01/25 09:37:07;;;;;;;315.30;86.00;;;;;;;;;;5055970;28;20796;-82
2024/01/25 09:39:35;;;;;;;52.53;40.30;;;;;;;;;;5053433;28;20681;-82
2024/01/25 09:42:04;;;;;;;21.93;15.97;;;;;;;;;;5055733;28;20271;-82
2024/01/25 09:44:31;;;;;;;161.20;104.93;;;;;;;;;;5053420;28;20227;-82
2024/01/25 09:47:03;;;;;;;7.10;2.80;;;;;;;;;;5055293;28;20232;-81
2024/01/25 09:49:30;;;;;;;6.30;2.17;;;;;;;;;;5053058;28;20279;-81
2024/01/25 09:51:58;;;;;;;6.40;2.90;;;;;;;;;;5055469;28;20239;-82
2024/01/25 09:54:25;;;;;;;9.43;2.87;;;;;;;;;;5052859;28;20247;-82
2024/01/25 09:56:54;;;;;;;8.33;3.40;;;;;;;;;;5055204;28;20746;-83
2024/01/25 09:59:21;;;;;;;8.93;2.43;;;;;;;;;;5055928;28;20252;-82
2024/01/25 10:01:48;;;;;;;6.07;2.40;;;;;;;;;;5057539;28;20211;-83
2024/01/25 10:04:19;;;;;;;5.77;2.50;;;;;;;;;;5057339;28;20235;-82
2024/01/25 10:06:46;;;;;;;6.53;3.30;;;;;;;;;;5075725;28;20223;-83
2024/01/25 10:09:14;;;;;;;4.87;2.40;;;;;;;;;;5056559;28;20276;-81
2024/01/25 10:11:41;;;;;;;12.80;3.27;;;;;;;;;;5074868;28;20235;-82
2024/01/25 10:14:16;;;;;;;8.37;2.43;;;;;;;;;;5074603;28;20230;-83
2024/01/25 10:16:45;;;;;;;3.77;2.50;;;;;;;;;;5069378;28;20763;-82
2024/01/25 10:19:12;;;;;;;4.03;2.27;;;;;;;;;;5054640;28;20251;-82
2024/01/25 10:21:41;;;;;;;7.20;2.20;;;;;;;;;;5054473;28;20361;-82
2024/01/25 10:24:09;;;;;;;3.77;1.67;;;;;;;;;;5040815;28;20223;-83
2024/01/25 10:26:36;;;;;;;6.23;2.27;;;;;;;;;;5054200;28;20235;-82
2024/01/25 10:29:04;;;;;;;4.73;2.30;;;;;;;;;;5054404;28;20223;-82
2024/01/25 10:31:38;;;;;;;6.43;2.30;;;;;;;;;;5054026;28;20247;-82
2024/01/25 10:34:07;;;;;;;3.97;1.73;;;;;;;;;;5053992;28;20286;-82
2024/01/25 10:36:35;;;;;;;4.43;2.30;;;;;;;;;;5053454;28;20243;-84
2024/01/25 10:39:04;;;;;;;5.07;2.27;;;;;;;;;;5055512;28;20234;-82
2024/01/25 10:41:32;;;;;;;119.37;13.53;;;;;;;;;;5036236;28;20236;-82
2024/01/25 10:44:01;;;;;;;84.97;9.23;;;;;;;;;;5054245;28;20224;-82
2024/01/25 10:46:29;;;;;;;4.97;2.70;;;;;;;;;;5054256;28;20223;-82
2024/01/25 10:48:57;;;;;;;5.17;2.23;;;;;;;;;;5054864;28;20200;-82
2024/01/25 10:51:27;;;;;;;5.93;2.70;;;;;;;;;;5054510;28;20281;-82
2024/01/25 10:53:54;;;;;;;8.50;2.83;;;;;;;;;;5054437;28;20215;-81
2024/01/25 10:56:22;;;;;;;3.60;2.27;;;;;;;;;;5035364;28;20199;-82
2024/01/25 10:58:49;;;;;;;5.33;2.37;;;;;;;;;;5035757;28;20260;-82
2024/01/25 11:01:17;;;;;;;3.37;2.17;;;;;;;;;;5042838;28;20235;-82
2024/01/25 11:03:48;;;;;;;3.13;2.27;;;;;;;;;;5036756;28;20289;-82
2024/01/25 11:06:17;;;;;;;4.20;2.20;;;;;;;;;;5045070;28;20192;-82
2024/01/25 11:08:44;;;;;;;3.27;1.93;;;;;;;;;;5053421;28;20204;-82
2024/01/25 11:11:14;;;;;;;7.13;2.93;;;;;;;;;;5053952;28;20228;-82
2024/01/25 11:13:44;;;;;;;4.93;2.50;;;;;;;;;;5062873;28;20191;-82
2024/01/25 11:16:20;;;;;;;8.47;2.77;;;;;;;;;;5052048;28;20238;-81
2024/01/25 11:18:54;;;;;;;4.93;2.17;;;;;;;;;;5034264;28;20291;-82
2024/01/25 11:21:45;;;;;;;7.17;2.87;;;;;;;;;;5046108;28;20192;-82
2024/01/25 11:24:16;;;;;;;5.60;2.00;;;;;;;;;;5053473;28;20207;-82
2024/01/25 11:26:44;;;;;;;6.80;2.47;;;;;;;;;;5054229;28;20625;-82
2024/01/25 11:29:20;;;;;;;3.90;2.23;;;;;;;;;;5036448;28;20201;-82
2024/01/25 11:31:49;;;;;;;5.57;2.73;;;;;;;;;;5053697;28;20624;-81
2024/01/25 11:34:17;;;;;;;7.03;3.10;;;;;;;;;;5053933;28;20295;-82
2024/01/25 11:36:45;;;;;;;7.23;2.50;;;;;;;;;;5053414;28;20246;-82
2024/01/25 11:39:15;;;;;;;4.53;2.73;;;;;;;;;;5054127;28;20279;-82
2024/01/25 11:41:43;;;;;;;3.20;2.00;;;;;;;;;;5052146;28;20233;-82
2024/01/25 11:44:11;;;;;;;5.10;2.53;;;;;;;;;;5054023;28;20211;-82
2024/01/25 11:46:38;;;;;;;3.97;2.40;;;;;;;;;;5053159;28;20563;-82
2024/01/25 11:49:07;;;;;;;5.90;3.20;;;;;;;;;;5052875;28;20215;-82
2024/01/25 11:51:35;;;;;;;4.10;2.50;;;;;;;;;;5068358;28;20589;-81
2024/01/25 11:54:05;;;;;;;3.73;2.10;;;;;;;;;;5054078;28;20562;-82
2024/01/25 11:56:34;;;;;;;5.67;3.27;;;;;;;;;;5054494;28;20267;-82
2024/01/25 11:59:01;;;;;;;2.77;2.10;;;;;;;;;;5054431;28;20206;-82
2024/01/25 12:01:29;;;;;;;4.20;2.63;;;;;;;;;;5055912;28;20298;-82
2024/01/25 12:03:56;;;;;;;3.40;2.30;;;;;;;;;;5054492;28;20203;-82
2024/01/25 12:06:24;;;;;;;4.60;2.50;;;;;;;;;;5048582;28;20754;-82
2024/01/25 12:08:51;;;;;;;3.47;2.07;;;;;;;;;;5034702;28;20200;-82
2024/01/25 12:11:21;;;;;;;2.00;1.80;;;;;;;;;;5062563;28;20272;-82
2024/01/25 12:13:49;;;;;;;3.57;2.80;;;;;;;;;;5034645;28;20200;-82
2024/01/25 12:16:16;;;;;;;4.03;2.17;;;;;;;;;;5052308;28;20215;-82
2024/01/25 12:18:44;;;;;;;4.33;2.40;;;;;;;;;;5052177;28;20195;-82
2024/01/25 12:21:13;;;;;;;5.13;3.80;;;;;;;;;;5034705;28;20212;-82
2024/01/25 12:23:40;;;;;;;7.87;4.80;;;;;;;;;;5035293;28;20262;-82
2024/01/25 12:26:09;;;;;;;5.00;2.60;;;;;;;;;;5053303;28;20204;-82
2024/01/25 12:28:37;;;;;;;5.67;2.50;;;;;;;;;;5053082;28;20242;-83
2024/01/25 12:31:06;;;;;;;4.57;2.57;;;;;;;;;;5071671;28;20218;-82
2024/01/25 12:33:34;;;;;;;11.83;3.70;;;;;;;;;;5073183;28;20636;-83
2024/01/25 12:36:02;;;;;;;7.03;2.70;;;;;;;;;;5072656;28;20203;-82
2024/01/25 12:38:33;;;;;;;4.63;2.43;;;;;;;;;;5055613;28;20199;-82
2024/01/25 12:41:02;;;;;;;14.60;3.73;;;;;;;;;;5055043;28;20192;-82
2024/01/25 12:43:30;;;;;;;4.10;2.10;;;;;;;;;;5035602;28;20204;-82
2024/01/25 12:45:59;;;;;;;2.13;1.50;;;;;;;;;;5052773;28;20586;-82
2024/01/25 12:48:44;;;;;;;2.57;1.60;;;;;;;;;;5053222;28;20207;-82
2024/01/25 12:51:14;;;;;;;3.50;2.10;;;;;;;;;;5073017;28;20227;-82
2024/01/25 12:53:41;;;;;;;2.73;2.00;;;;;;;;;;5075068;28;20211;-83
2024/01/25 12:56:09;;;;;;;3.77;3.00;;;;;;;;;;5054621;28;20306;-82
2024/01/25 12:58:36;;;;;;;3.73;2.30;;;;;;;;;;5072465;28;20203;-82
2024/01/25 13:01:04;;;;;;;3.60;1.87;;;;;;;;;;5055290;28;20234;-83
2024/01/25 13:03:32;;;;;;;1.77;1.53;;;;;;;;;;5056487;28;20272;-84
2024/01/25 13:06:03;;;;;;;1.67;1.33;;;;;;;;;;5056279;28;20283;-82
2024/01/25 13:08:30;;;;;;;2.83;1.50;;;;;;;;;;5022589;28;20279;-82
2024/01/25 13:10:57;;;;;;;2.33;1.03;;;;;;;;;;5064394;28;20222;-82
2024/01/25 13:13:25;;;;;;;2.97;1.47;;;;;;;;;;5075554;28;20207;-82
2024/01/25 13:15:52;;;;;;;3.60;1.40;;;;;;;;;;5066716;28;20210;-82
2024/01/25 13:18:20;;;;;;;7.93;1.87;;;;;;;;;;5076580;28;20207;-81
2024/01/25 13:20:47;;;;;;;2.23;1.60;;;;;;;;;;5058370;28;20200;-83
2024/01/25 13:23:14;;;;;;;1.90;1.10;;;;;;;;;;5076147;28;20219;-82
2024/01/25 13:25:42;;;;;;;1.80;1.00;;;;;;;;;;5058433;28;20195;-83
2024/01/25 13:28:09;;;;;;;1.57;1.03;;;;;;;;;;5075578;28;20214;-82
2024/01/25 13:30:36;;;;;;;1.70;1.00;;;;;;;;;;5075267;28;20223;-81
2024/01/25 13:33:03;;;;;;;3.50;1.40;;;;;;;;;;5063403;28;20315;-80
2024/01/25 13:35:30;;;;;;;1.60;1.10;;;;;;;;;;5037917;28;20239;-80
2024/01/25 13:38:00;;;;;;;2.60;1.33;;;;;;;;;;5066806;28;20261;-80
2024/01/25 13:40:28;;;;;;;1.90;1.27;;;;;;;;;;5070809;28;20730;-80
2024/01/25 13:42:54;;;;;;;2.37;1.40;;;;;;;;;;5063270;28;20976;-80
2024/01/25 13:45:22;;;;;;;1.73;1.30;;;;;;;;;;5071821;28;20675;-80
2024/01/25 13:47:49;;;;;;;2.20;1.53;;;;;;;;;;5065827;28;20225;-81
2024/01/25 13:50:16;;;;;;;2.40;1.60;;;;;;;;;;5067092;28;20224;-81
2024/01/25 13:52:43;;;;;;;1.40;1.03;;;;;;;;;;5062128;28;20237;-80
2024/01/25 13:55:10;;;;;;;2.20;1.53;;;;;;;;;;5071604;28;20226;-80
2024/01/25 13:57:37;;;;;;;2.03;1.03;;;;;;;;;;5087359;28;20219;-81
2024/01/25 14:00:05;;;;;;;2.17;1.10;;;;;;;;;;5045420;28;20234;-81
2024/01/25 14:02:32;;;;;;;1.03;0.93;;;;;;;;;;5059369;28;20246;-80
2024/01/25 14:05:00;;;;;;;3.10;1.20;;;;;;;;;;5067024;28;20607;-80
2024/01/25 14:07:27;;;;;;;1.37;1.00;;;;;;;;;;5059924;28;20235;-81
2024/01/25 14:09:55;;;;;;;2.00;1.13;;;;;;;;;;5066775;28;20223;-81
2024/01/25 14:12:22;;;;;;;1.90;0.93;;;;;;;;;;5060508;28;20239;-81
2024/01/25 14:14:49;;;;;;;1.23;1.00;;;;;;;;;;5063867;28;20291;-81
2024/01/25 14:17:17;;;;;;;1.73;1.20;;;;;;;;;;5065796;28;20726;-80
2024/01/25 14:19:44;;;;;;;3.27;1.17;;;;;;;;;;5065515;28;20287;-80
2024/01/25 14:22:12;;;;;;;2.37;1.23;;;;;;;;;;5059568;28;20701;-80
2024/01/25 14:24:55;;;;;;;1.70;1.03;;;;;;;;;;5059832;28;20230;-80
2024/01/25 14:27:23;;;;;;;1.00;0.90;;;;;;;;;;5064231;28;20573;-80
2024/01/25 14:29:50;;;;;;;1.60;1.13;;;;;;;;;;5064528;28;20223;-80
2024/01/25 14:32:21;;;;;;;1.20;1.10;;;;;;;;;;5064703;28;20231;-81
2024/01/25 14:34:48;;;;;;;1.33;0.93;;;;;;;;;;5065606;28;20242;-80
2024/01/25 14:37:16;;;;;;;1.23;1.00;;;;;;;;;;5060262;28;20693;-81
2024/01/25 14:39:43;;;;;;;1.77;1.30;;;;;;;;;;5060571;28;20223;-80
2024/01/25 14:42:30;;;;;;;3.17;1.30;;;;;;;;;;5066877;28;20222;-80